Forside
METAR-TAF:

METAR-TAF

Lufthavne :

Milwaukee, Wisconsin, USA

Breddekreds: 42-57-18N, længdekreds: 087-54-16W, højde: 220 m

Aktuelle vejr

Denne rapport blev lavet for 16 minutter siden, kl. 23:52 UTC
Vind 7 kt fra østsydøst
Temperatur 21°C
Fugtighed 33%
Tryk 1018 hPa
Sigt: 16.1 km
Nogle få skyer i en højde af 25000 ft

METAR: KMKE 162352Z 12007KT 10SM FEW250 21/04 A3006 RMK AO2 SLP176 T02060044 10228 20200 58015

Tid: 19:08 (00:08 UTC)

Vejrudsigter

Denne rapport blev lavet for 43 minutter siden, kl. 23:25 UTC
Foreløbig gælder fra 17 på 00 UTC til 18 på 06 UTC
Vind 6 kt fra østsydøst
Sigt: 10 km
skyfri
Fra 17 på 0600 UTC
Vind 3 kt fra sydsydvest
Sigt: 10 km
skyfri
Fra 17 på 1700 UTC
Vind 11 kt fra syd
Sigt: 10 km
Nogle få skyer i en højde af 25000 ft

TAF: KMKE 162325Z 1700/1806 11006KT P6SM SKC FM170600 20003KT P6SM SKC FM171700 19011KT P6SM FEW250

Vejrobservationer og prognoser fra mere end 4000 lufthavne (METAR og TAF).

De gule og røde prikker repræsenterer de meteorologiske stationer.

Flyt musen over at se navnet på stationen.

Så klik over at se vejr observationer og prognoser.

At skifte det kort: Klik på de grønne knapper med et sort kors for at zoome ind; på den grønne knap med en bindestreg for at zoome ud; eller på de grønne pile for tilstødende kort.


METAR-TAF: